Time;durP1;ratioP1;P1;durP2;ratioP2;P2;SDS_P1;SDS_P2;PMS_P1;PMS_P2;Temp;Humidity;BMP_temperature;BMP_pressure;BME280_temperature;BME280_humidity;BME280_pressure;Samples;Min_cycle;Max_cycle;Signal;HPM_P1;HPM_P2
2023/04/20 00:00:40;;;;;;;20.30;14.10;;;;;;;9.14;99.89;101000.77;105862;1257;101148;-85
2023/04/20 00:03:26;;;;;;;23.30;15.60;;;;;;;9.12;99.87;101003.14;106099;1261;99500;-82
2023/04/20 00:06:12;;;;;;;20.70;14.20;;;;;;;9.10;99.93;101002.85;106254;1257;99229;-86
2023/04/20 00:08:58;;;;;;;20.80;14.00;;;;;;;9.08;99.86;101002.54;106166;1257;98012;-83
2023/04/20 00:11:44;;;;;;;21.30;14.00;;;;;;;9.05;99.86;101000.00;106099;1257;101461;-86
2023/04/20 00:14:29;;;;;;;18.00;13.00;;;;;;;9.01;100.00;100994.56;106167;1256;99171;-86
2023/04/20 00:17:15;;;;;;;22.60;14.40;;;;;;;8.98;99.97;100993.13;105874;1259;98837;-84
2023/04/20 00:20:02;;;;;;;25.60;14.70;;;;;;;8.96;99.94;100994.43;106008;1259;97993;-85
2023/04/20 00:22:48;;;;;;;20.80;14.40;;;;;;;8.92;99.94;100995.56;106098;1257;96584;-84
2023/04/20 00:25:33;;;;;;;22.70;14.00;;;;;;;8.89;99.99;100991.29;106265;1261;102610;-84
2023/04/20 00:28:19;;;;;;;20.00;13.70;;;;;;;8.86;100.00;100988.36;105944;1260;99074;-83
2023/04/20 00:31:05;;;;;;;21.70;14.20;;;;;;;8.86;100.00;100987.58;106001;1261;98082;-85
2023/04/20 00:33:52;;;;;;;20.40;14.10;;;;;;;8.82;100.00;100992.42;105981;1260;97872;-84
2023/04/20 00:36:38;;;;;;;23.50;15.80;;;;;;;8.78;100.00;100986.60;105996;1258;97823;-84
2023/04/20 00:39:23;;;;;;;25.20;14.20;;;;;;;8.74;100.00;100985.69;106065;1261;101333;-85
2023/04/20 00:42:09;;;;;;;25.40;14.10;;;;;;;8.69;100.00;100985.26;105940;1261;100034;-86
2023/04/20 00:44:55;;;;;;;20.80;14.60;;;;;;;8.66;100.00;100985.65;105924;1264;98626;-83
2023/04/20 00:47:41;;;;;;;18.40;13.40;;;;;;;8.64;100.00;100984.92;105920;1257;97962;-86
2023/04/20 00:50:27;;;;;;;23.30;13.70;;;;;;;8.62;100.00;100983.58;105871;1257;98479;-84
2023/04/20 00:53:13;;;;;;;20.00;13.90;;;;;;;8.58;100.00;100983.35;106009;1258;101367;-87
2023/04/20 00:55:59;;;;;;;21.20;14.10;;;;;;;8.53;100.00;100985.80;106010;1257;99068;-83
2023/04/20 00:58:45;;;;;;;19.90;14.40;;;;;;;8.50;100.00;100988.09;106050;1258;99079;-83
2023/04/20 01:01:31;;;;;;;22.00;15.00;;;;;;;8.46;100.00;100985.99;106082;1259;96464;-83
2023/04/20 01:04:17;;;;;;;18.40;13.30;;;;;;;8.44;100.00;100984.09;105904;1257;98039;-84
2023/04/20 01:07:03;;;;;;;22.80;14.30;;;;;;;8.42;100.00;100988.58;106109;1261;110330;-83
2023/04/20 01:09:49;;;;;;;20.00;13.30;;;;;;;8.40;100.00;100986.96;106054;1261;100125;-86
2023/04/20 01:12:35;;;;;;;20.90;14.00;;;;;;;8.39;100.00;100987.88;106095;1257;99001;-83
2023/04/20 01:15:22;;;;;;;18.60;12.50;;;;;;;8.36;100.00;100985.86;105984;1258;98049;-84
2023/04/20 01:18:08;;;;;;;22.60;14.20;;;;;;;8.33;100.00;100984.42;106007;1257;98442;-84
2023/04/20 01:21:02;;;;;;;21.10;12.90;;;;;;;8.28;100.00;100980.47;106881;1264;102625;-85
2023/04/20 01:23:48;;;;;;;22.80;13.60;;;;;;;8.25;100.00;100978.48;106073;1259;99067;-82
2023/04/20 01:26:34;;;;;;;18.40;12.70;;;;;;;8.21;100.00;100977.41;105848;1261;98749;-82
2023/04/20 01:29:20;;;;;;;23.40;14.00;;;;;;;8.19;100.00;100977.54;105929;1259;98055;-84
2023/04/20 01:32:06;;;;;;;20.40;13.70;;;;;;;8.16;100.00;100975.72;105982;1261;97968;-83
2023/04/20 01:34:52;;;;;;;18.60;12.80;;;;;;;8.14;100.00;100979.33;106053;1258;101340;-84
2023/04/20 01:37:39;;;;;;;20.40;12.70;;;;;;;8.12;100.00;100979.99;105921;1263;99094;-85
2023/04/20 01:40:25;;;;;;;19.10;11.60;;;;;;;8.13;100.00;100975.32;105977;1259;98470;-84
2023/04/20 01:43:11;;;;;;;17.90;13.00;;;;;;;8.12;100.00;100976.36;105992;1261;97968;-83
2023/04/20 01:45:58;;;;;;;17.90;12.20;;;;;;;8.09;100.00;100975.92;105902;1259;97994;-84
2023/04/20 01:48:45;;;;;;;19.30;12.20;;;;;;;8.06;100.00;100974.23;106024;1261;101341;-85
2023/04/20 01:51:32;;;;;;;17.30;12.00;;;;;;;8.04;100.00;100973.92;106249;1258;100352;-85
2023/04/20 01:54:18;;;;;;;17.70;11.70;;;;;;;8.05;100.00;100976.20;105994;1261;98502;-85
2023/04/20 01:57:04;;;;;;;21.20;11.60;;;;;;;8.05;100.00;100976.37;105769;1264;98016;-83
2023/04/20 01:59:49;;;;;;;17.50;11.60;;;;;;;8.07;100.00;100974.40;106047;1259;98010;-83
2023/04/20 02:02:35;;;;;;;16.70;11.70;;;;;;;8.08;100.00;100972.84;105818;1263;103163;-85
2023/04/20 02:05:21;;;;;;;19.50;12.50;;;;;;;8.10;100.00;100977.02;106055;1258;100414;-84
2023/04/20 02:08:06;;;;;;;21.50;11.90;;;;;;;8.12;100.00;100977.39;106083;1259;98274;-87
2023/04/20 02:10:52;;;;;;;16.60;11.20;;;;;;;8.13;100.00;100980.65;106187;1260;97964;-83
2023/04/20 02:13:39;;;;;;;19.50;12.00;;;;;;;8.14;100.00;100983.53;105988;1259;98407;-83
2023/04/20 02:16:24;;;;;;;16.60;11.70;;;;;;;8.17;100.00;100979.52;105975;1257;103120;-83
2023/04/20 02:19:11;;;;;;;18.60;11.70;;;;;;;8.19;100.00;100981.11;105793;1257;99684;-83
2023/04/20 02:21:56;;;;;;;16.40;12.20;;;;;;;8.21;100.00;100980.67;105854;1257;99098;-84
2023/04/20 02:24:43;;;;;;;14.60;11.80;;;;;;;8.23;100.00;100980.48;105879;1261;98074;-83
2023/04/20 02:27:28;;;;;;;20.00;12.00;;;;;;;8.24;100.00;100977.30;106029;1259;98496;-84
2023/04/20 02:30:14;;;;;;;16.00;10.70;;;;;;;8.26;100.00;100979.80;106199;1259;101395;-83
2023/04/20 02:33:01;;;;;;;19.00;11.10;;;;;;;8.28;100.00;100986.38;106039;1259;99091;-84
2023/04/20 02:35:48;;;;;;;16.60;11.80;;;;;;;8.29;100.00;100985.64;105855;1258;97929;-84
2023/04/20 02:38:33;;;;;;;16.10;11.90;;;;;;;8.31;100.00;100983.73;105846;1263;98114;-86
2023/04/20 02:41:19;;;;;;;19.00;11.40;;;;;;;8.32;100.00;100984.00;106163;1259;98054;-84
2023/04/20 02:44:07;;;;;;;19.20;11.60;;;;;;;8.32;100.00;100986.77;105967;1261;102213;-83
2023/04/20 02:46:54;;;;;;;19.00;11.80;;;;;;;8.33;100.00;100984.95;105863;1259;100062;-84
2023/04/20 02:49:40;;;;;;;15.10;11.20;;;;;;;8.33;100.00;100984.25;105839;1261;98036;-84
2023/04/20 02:52:26;;;;;;;17.70;11.10;;;;;;;8.32;100.00;100987.52;106154;1259;98042;-83
2023/04/20 02:55:15;;;;;;;14.00;10.70;;;;;;;8.30;100.00;100985.92;105886;1261;97950;-86
2023/04/20 02:58:03;;;;;;;16.10;11.20;;;;;;;8.29;100.00;100984.52;106008;1259;101501;-84
2023/04/20 03:01:09;;;;;;;16.30;11.00;;;;;;;8.26;100.00;100988.67;105796;1257;99719;-86
2023/04/20 03:03:55;;;;;;;15.50;11.20;;;;;;;8.25;99.98;100993.40;105964;1261;99017;-85
2023/04/20 03:06:41;;;;;;;17.60;12.30;;;;;;;8.26;99.90;100994.77;105865;1259;98160;-86
2023/04/20 03:09:29;;;;;;;14.60;11.10;;;;;;;8.27;99.99;100997.65;106750;1259;98500;-85
2023/04/20 03:12:31;;;;;;;16.20;11.60;;;;;;;8.28;99.97;100993.15;105932;1259;102110;-85
2023/04/20 03:15:17;;;;;;;17.40;11.70;;;;;;;8.29;99.98;100992.62;105966;1258;99170;-83
2023/04/20 03:18:15;;;;;;;18.90;11.10;;;;;;;8.32;99.99;100996.05;106047;1259;97869;-85
2023/04/20 03:21:00;;;;;;;17.50;12.20;;;;;;;8.33;99.97;101004.81;106125;1257;98350;-87
2023/04/20 03:23:48;;;;;;;15.70;11.80;;;;;;;8.35;99.95;101010.75;106004;1257;97854;-84
2023/04/20 03:26:35;;;;;;;17.70;12.30;;;;;;;8.37;99.94;101008.56;106002;1262;101336;-83
2023/04/20 03:29:38;;;;;;;20.90;11.40;;;;;;;8.39;99.95;101009.54;106112;1261;99064;-84
2023/04/20 03:32:24;;;;;;;15.20;11.00;;;;;;;8.41;99.95;101008.05;106231;1261;98488;-86
2023/04/20 03:35:10;;;;;;;16.70;11.80;;;;;;;8.42;99.82;101005.84;105934;1258;98026;-84
2023/04/20 03:37:56;;;;;;;19.60;11.10;;;;;;;8.44;99.90;101009.91;105887;1263;98474;-83
2023/04/20 03:40:42;;;;;;;15.40;11.50;;;;;;;8.46;99.56;101008.83;106024;1257;101360;-83
2023/04/20 03:43:28;;;;;;;15.40;11.20;;;;;;;8.46;99.61;101006.95;105985;1261;99227;-83
2023/04/20 03:46:14;;;;;;;17.60;11.30;;;;;;;8.47;99.54;101011.48;105918;1263;98239;-84
2023/04/20 03:49:00;;;;;;;14.70;10.70;;;;;;;8.47;99.36;101013.83;105998;1258;98131;-86
2023/04/20 03:51:46;;;;;;;16.10;11.70;;;;;;;8.46;99.44;101017.15;105940;1257;98061;-84
2023/04/20 03:54:32;;;;;;;16.60;11.00;;;;;;;8.45;99.35;101020.98;106115;1259;101330;-85
2023/04/20 03:57:19;;;;;;;17.20;11.70;;;;;;;8.43;99.42;101019.41;106178;1259;99092;-84
2023/04/20 04:00:05;;;;;;;13.90;11.10;;;;;;;8.42;99.38;101014.48;106125;1261;99455;-83
2023/04/20 04:03:04;;;;;;;17.70;12.40;;;;;;;8.42;99.42;101012.02;106040;1257;97978;-84
2023/04/20 04:05:51;;;;;;;17.60;11.80;;;;;;;8.44;99.59;101012.68;105983;1259;98055;-82
2023/04/20 04:08:39;;;;;;;15.70;11.50;;;;;;;8.47;99.54;101009.41;105944;1261;102581;-84
2023/04/20 04:11:28;;;;;;;18.00;11.30;;;;;;;8.48;99.46;101010.85;106007;1263;100887;-84
2023/04/20 04:14:14;;;;;;;16.30;11.60;;;;;;;8.50;99.48;101010.99;106078;1259;98976;-84
2023/04/20 04:17:02;;;;;;;16.70;10.70;;;;;;;8.51;99.57;101014.07;105847;1259;97759;-83
2023/04/20 04:19:48;;;;;;;15.00;11.30;;;;;;;8.50;99.41;101013.55;105901;1258;97947;-83
2023/04/20 04:22:34;;;;;;;13.90;11.10;;;;;;;8.49;99.38;101017.00;105949;1261;101396;-83
2023/04/20 04:25:51;;;;;;;15.20;11.80;;;;;;;8.49;99.66;101023.01;106466;1260;99144;-85
2023/04/20 04:28:40;;;;;;;16.30;10.80;;;;;;;8.52;99.90;101025.34;106671;1257;97962;-85
2023/04/20 04:31:33;;;;;;;16.20;11.10;;;;;;;8.55;99.90;101029.32;106013;1261;97868;-84
2023/04/20 04:34:28;;;;;;;15.80;12.00;;;;;;;8.59;99.82;101033.38;106162;1257;97851;-84
2023/04/20 04:37:15;;;;;;;16.80;11.00;;;;;;;8.59;99.85;101040.70;105875;1261;102819;-87
2023/04/20 04:40:08;;;;;;;18.80;12.40;;;;;;;8.60;99.88;101040.39;105883;1264;100085;-87
2023/04/20 04:42:55;;;;;;;16.30;12.20;;;;;;;8.60;99.97;101042.77;106181;1259;97930;-83
2023/04/20 04:45:42;;;;;;;15.20;11.70;;;;;;;8.60;100.00;101046.27;106297;1258;98643;-83
2023/04/20 04:48:34;;;;;;;18.70;11.70;;;;;;;8.62;100.00;101047.53;105980;1258;98375;-84
2023/04/20 04:51:20;;;;;;;17.90;11.50;;;;;;;8.63;100.00;101049.93;106227;1258;102002;-85
2023/04/20 04:54:06;;;;;;;20.50;13.50;;;;;;;8.65;100.00;101052.02;106056;1260;108977;-84
2023/04/20 04:56:52;;;;;;;18.80;12.30;;;;;;;8.67;100.00;101052.99;106065;1257;98995;-83
2023/04/20 04:59:38;;;;;;;18.00;12.30;;;;;;;8.70;100.00;101051.09;106137;1259;97869;-86
2023/04/20 05:02:24;;;;;;;20.10;12.70;;;;;;;8.73;100.00;101057.00;106031;1263;98373;-84
2023/04/20 05:05:09;;;;;;;21.30;12.90;;;;;;;8.75;100.00;101058.74;106070;1262;101424;-84
2023/04/20 05:07:55;;;;;;;21.90;12.10;;;;;;;8.78;100.00;101058.26;106219;1257;99326;-83
2023/04/20 05:10:41;;;;;;;17.60;12.50;;;;;;;8.82;100.00;101062.58;106048;1264;98044;-83
2023/04/20 05:13:27;;;;;;;19.00;12.70;;;;;;;8.86;100.00;101060.04;105939;1263;98116;-83
2023/04/20 05:16:13;;;;;;;18.60;13.00;;;;;;;8.91;100.00;101058.08;106140;1258;98403;-86
2023/04/20 05:18:59;;;;;;;17.40;12.30;;;;;;;8.99;100.00;101055.41;105837;1264;102095;-84
2023/04/20 05:21:45;;;;;;;17.10;12.60;;;;;;;9.08;100.00;101058.70;106041;1259;99103;-83
2023/04/20 05:24:31;;;;;;;18.80;12.20;;;;;;;9.17;100.00;101060.48;106076;1262;98125;-84
2023/04/20 05:27:17;;;;;;;17.60;13.00;;;;;;;9.29;100.00;101061.68;106232;1258;97849;-84
2023/04/20 05:30:03;;;;;;;16.00;11.10;;;;;;;9.40;100.00;101064.09;106107;1258;98391;-84
2023/04/20 05:32:50;;;;;;;19.10;11.80;;;;;;;9.47;99.52;101068.86;106238;1256;102604;-84
2023/04/20 05:35:36;;;;;;;16.20;11.20;;;;;;;9.50;99.28;101072.54;105836;1263;99153;-84
2023/04/20 05:38:22;;;;;;;16.80;11.50;;;;;;;9.53;98.87;101076.02;105893;1266;98036;-84
2023/04/20 05:41:08;;;;;;;15.60;11.20;;;;;;;9.56;98.77;101077.42;105863;1258;97978;-83
2023/04/20 05:43:55;;;;;;;17.30;11.70;;;;;;;9.60;98.46;101074.86;106156;1261;97787;-83
2023/04/20 05:46:41;;;;;;;19.60;11.40;;;;;;;9.62;98.53;101078.48;105897;1264;102660;-84
2023/04/20 05:49:27;;;;;;;18.10;11.90;;;;;;;9.65;97.80;101081.62;106021;1261;100408;-83
2023/04/20 05:52:12;;;;;;;15.70;10.70;;;;;;;9.65;97.71;101076.06;105802;1263;97969;-85
2023/04/20 05:54:58;;;;;;;15.80;11.00;;;;;;;9.65;97.41;101081.75;105870;1257;97941;-84
2023/04/20 05:57:45;;;;;;;16.00;11.20;;;;;;;9.66;97.53;101087.03;105845;1261;97965;-86
2023/04/20 06:00:31;;;;;;;16.90;11.20;;;;;;;9.69;97.56;101093.67;106153;1257;101722;-85
2023/04/20 06:03:17;;;;;;;16.00;12.00;;;;;;;9.75;97.95;101092.27;105976;1261;99091;-87
2023/04/20 06:06:03;;;;;;;18.30;11.40;;;;;;;9.79;97.83;101088.92;105997;1261;98990;-84
2023/04/20 06:08:49;;;;;;;15.10;10.80;;;;;;;9.82;98.02;101093.90;106353;1264;98556;-85
2023/04/20 06:11:35;;;;;;;14.90;11.20;;;;;;;9.91;98.30;101094.64;106050;1257;99776;-84
2023/04/20 06:14:21;;;;;;;14.60;11.20;;;;;;;10.05;98.69;101099.16;106069;1264;102008;-85
2023/04/20 06:17:07;;;;;;;15.90;11.10;;;;;;;10.17;98.68;101098.83;105904;1259;99122;-85
2023/04/20 06:19:53;;;;;;;17.70;10.20;;;;;;;10.26;98.22;101103.21;105968;1264;98265;-87
2023/04/20 06:22:46;;;;;;;16.70;10.20;;;;;;;10.34;97.55;101106.30;105908;1259;99228;-85
2023/04/20 06:25:31;;;;;;;13.40;10.10;;;;;;;10.43;98.13;101108.28;106046;1259;98432;-86
2023/04/20 06:28:17;;;;;;;15.90;11.00;;;;;;;10.54;98.12;101111.15;105996;1262;101515;-86
2023/04/20 06:31:04;;;;;;;17.60;13.80;;;;;;;10.63;97.88;101109.34;105870;1261;99774;-85
2023/04/20 06:33:49;;;;;;;15.70;10.20;;;;;;;10.76;98.35;101107.70;105913;1259;98984;-86
2023/04/20 06:36:35;;;;;;;11.80;8.70;;;;;;;10.83;96.61;101112.79;106233;1257;97859;-85
2023/04/20 06:39:21;;;;;;;21.30;9.70;;;;;;;10.87;96.60;101108.84;106322;1257;97965;-85
2023/04/20 06:42:07;;;;;;;12.30;8.70;;;;;;;10.92;96.34;101106.55;106292;1261;102087;-85
2023/04/20 06:44:55;;;;;;;14.80;9.30;;;;;;;10.98;95.89;101105.70;106305;1261;99093;-85
2023/04/20 06:47:40;;;;;;;14.40;9.10;;;;;;;11.06;96.18;101107.91;105800;1261;98148;-84
2023/04/20 06:50:26;;;;;;;15.90;8.60;;;;;;;11.17;95.62;101111.13;106068;1261;98025;-85
2023/04/20 06:53:12;;;;;;;16.10;8.60;;;;;;;11.25;95.34;101111.58;105963;1261;98029;-85
2023/04/20 06:55:58;;;;;;;16.40;9.00;;;;;;;11.36;95.44;101109.61;106095;1261;102554;-85
2023/04/20 06:58:44;;;;;;;15.00;7.60;;;;;;;11.52;95.39;101110.70;106205;1257;100344;-86
2023/04/20 07:01:30;;;;;;;16.70;9.10;;;;;;;11.71;95.62;101111.33;106184;1259;98470;-84
2023/04/20 07:04:15;;;;;;;16.90;8.10;;;;;;;11.88;94.54;101117.05;106150;1259;98403;-86
2023/04/20 07:07:02;;;;;;;12.50;7.50;;;;;;;12.02;93.66;101116.13;106055;1258;98440;-85
2023/04/20 07:09:48;;;;;;;15.90;7.60;;;;;;;12.22;93.82;101115.31;106170;1263;102670;-86
2023/04/20 07:12:35;;;;;;;16.50;7.70;;;;;;;12.41;92.66;101112.28;106027;1257;99144;-86
2023/04/20 07:15:21;;;;;;;12.90;6.50;;;;;;;12.53;92.10;101113.64;106115;1258;98274;-86
2023/04/20 07:18:07;;;;;;;13.10;6.40;;;;;;;12.69;91.39;101113.37;105845;1276;98064;-83
2023/04/20 07:20:53;;;;;;;16.80;6.70;;;;;;;12.84;91.44;101112.46;106025;1264;98049;-84
2023/04/20 07:23:39;;;;;;;15.10;6.70;;;;;;;13.04;91.61;101114.19;105933;1261;102573;-85
2023/04/20 07:26:25;;;;;;;13.90;5.60;;;;;;;13.26;91.13;101112.70;105884;1257;99138;-85
2023/04/20 07:29:11;;;;;;;14.30;5.60;;;;;;;13.47;89.30;101115.56;106038;1264;98583;-85
2023/04/20 07:31:56;;;;;;;24.50;6.30;;;;;;;13.61;88.26;101111.63;106281;1261;97962;-84
2023/04/20 07:34:43;;;;;;;18.90;6.10;;;;;;;13.68;86.99;101112.63;106160;1261;98600;-85
2023/04/20 07:37:30;;;;;;;14.80;5.40;;;;;;;13.76;86.48;101112.52;106131;1261;103138;-84
2023/04/20 07:40:16;;;;;;;15.50;5.00;;;;;;;13.82;85.88;101110.86;106388;1261;99108;-88
2023/04/20 07:43:09;;;;;;;11.00;4.80;;;;;;;13.87;85.04;101113.08;106325;1262;98387;-92
2023/04/20 07:45:57;;;;;;;17.10;6.30;;;;;;;13.94;84.62;101112.89;106065;1263;98058;-82
2023/04/20 07:48:43;;;;;;;14.90;5.10;;;;;;;14.02;83.77;101116.05;106812;1262;98490;-88
2023/04/20 07:51:31;;;;;;;16.10;4.90;;;;;;;14.09;83.34;101117.18;106616;1257;102798;-80
2023/04/20 07:54:16;;;;;;;15.60;5.80;;;;;;;14.18;83.02;101122.91;105906;1271;99080;-80
2023/04/20 07:57:02;;;;;;;16.70;5.80;;;;;;;14.23;81.40;101120.55;106133;1263;98824;-82
2023/04/20 07:59:48;;;;;;;15.50;5.40;;;;;;;14.28;81.13;101118.92;106217;1271;99210;-83
2023/04/20 08:02:34;;;;;;;20.20;5.50;;;;;;;14.34;81.30;101119.16;106089;1264;97978;-80
2023/04/20 08:05:23;;;;;;;16.00;5.20;;;;;;;14.44;80.50;101117.84;106190;1257;101324;-88
2023/04/20 08:08:09;;;;;;;21.40;5.30;;;;;;;14.53;80.15;101116.56;106730;1257;99005;-81
2023/04/20 08:10:57;;;;;;;16.80;5.30;;;;;;;14.63;79.91;101116.41;106675;1257;97975;-81
2023/04/20 08:13:42;;;;;;;13.80;5.20;;;;;;;14.75;79.37;101115.63;106478;1257;98461;-80
2023/04/20 08:16:28;;;;;;;17.70;5.20;;;;;;;14.86;79.51;101116.09;106327;1263;98452;-80
2023/04/20 08:19:21;;;;;;;12.80;4.80;;;;;;;14.95;78.41;101116.11;106489;1263;103556;-79
2023/04/20 08:22:07;;;;;;;14.70;5.00;;;;;;;15.03;77.72;101117.77;106748;1262;99216;-80
2023/04/20 08:24:52;;;;;;;13.30;5.50;;;;;;;15.11;77.78;101117.57;106474;1261;99294;-83
2023/04/20 08:27:38;;;;;;;14.00;5.50;;;;;;;15.17;76.97;101118.38;106011;1258;98109;-81
2023/04/20 08:30:25;;;;;;;19.10;7.30;;;;;;;15.21;76.88;101117.98;106032;1263;98072;-83
2023/04/20 08:33:12;;;;;;;16.90;5.60;;;;;;;15.27;76.18;101119.36;106037;1258;102601;-80
2023/04/20 08:35:58;;;;;;;11.00;5.70;;;;;;;15.32;75.78;101117.20;106013;1263;100374;-82
2023/04/20 08:38:44;;;;;;;11.90;5.00;;;;;;;15.38;75.20;101119.46;106373;1262;97892;-82
2023/04/20 08:41:30;;;;;;;15.10;5.40;;;;;;;15.43;74.80;101117.58;106345;1262;97965;-82
2023/04/20 08:44:16;;;;;;;13.80;4.50;;;;;;;15.50;75.10;101115.40;106255;1257;97957;-82
2023/04/20 08:47:02;;;;;;;16.80;4.50;;;;;;;15.57;73.84;101110.55;106540;1263;103848;-82
2023/04/20 08:49:51;;;;;;;16.90;4.80;;;;;;;15.63;73.52;101110.17;106543;1262;99097;-83
2023/04/20 08:52:38;;;;;;;17.00;5.20;;;;;;;15.75;74.06;101111.75;106236;1263;99433;-82
2023/04/20 08:55:24;;;;;;;14.60;4.60;;;;;;;15.88;73.84;101112.17;106272;1260;98045;-81
2023/04/20 08:58:10;;;;;;;22.20;5.10;;;;;;;15.98;73.08;101114.27;106335;1258;98693;-82
2023/04/20 09:00:56;;;;;;;13.10;5.60;;;;;;;16.06;72.49;101114.10;106481;1258;101991;-81
2023/04/20 09:03:41;;;;;;;19.80;4.60;;;;;;;16.12;71.89;101114.69;107155;1258;100799;-81
2023/04/20 09:06:27;;;;;;;15.20;5.00;;;;;;;16.18;71.56;101109.27;106109;1258;98765;-80
2023/04/20 09:09:13;;;;;;;17.50;5.40;;;;;;;16.22;70.83;101110.89;106552;1260;97782;-80
2023/04/20 09:12:08;;;;;;;17.60;4.80;;;;;;;16.24;70.51;101108.96;105988;1263;97981;-78
2023/04/20 09:14:54;;;;;;;12.20;4.30;;;;;;;16.30;69.58;101108.87;105453;1261;101418;-79
2023/04/20 09:17:40;;;;;;;18.20;4.60;;;;;;;16.35;69.49;101108.86;105502;1260;99076;-79
2023/04/20 09:20:38;;;;;;;8.00;4.00;;;;;;;16.45;69.90;101111.54;105565;1261;97966;-89
2023/04/20 09:23:24;;;;;;;10.80;4.10;;;;;;;16.53;68.67;101116.58;106248;1257;99230;-85
2023/04/20 09:26:17;;;;;;;21.50;4.60;;;;;;;16.60;67.98;101115.98;106473;1259;97978;-83
2023/04/20 09:29:14;;;;;;;20.30;4.00;;;;;;;16.68;67.27;101115.19;106302;1259;102048;-87
2023/04/20 09:32:00;;;;;;;18.90;3.40;;;;;;;16.76;66.65;101117.98;105850;1258;99116;-84
2023/04/20 09:34:46;;;;;;;15.50;3.70;;;;;;;16.74;65.24;101112.50;106012;1258;98060;-84
2023/04/20 09:37:32;;;;;;;13.00;3.10;;;;;;;16.71;64.13;101113.17;106159;1257;99373;-84
2023/04/20 09:40:20;;;;;;;12.30;3.50;;;;;;;16.71;63.47;101115.02;105894;1262;98575;-85
2023/04/20 09:43:13;;;;;;;17.10;3.60;;;;;;;16.71;62.86;101114.50;106237;1258;101387;-86
2023/04/20 09:45:59;;;;;;;11.40;3.80;;;;;;;16.65;62.14;101113.11;105894;1257;107590;-85
2023/04/20 09:48:45;;;;;;;14.50;3.50;;;;;;;16.56;62.34;101117.35;105805;1264;98982;-84
2023/04/20 09:51:34;;;;;;;10.20;3.10;;;;;;;16.51;62.07;101112.92;105867;1258;98056;-86
2023/04/20 09:54:21;;;;;;;15.70;3.60;;;;;;;16.48;61.83;101116.23;105866;1263;97950;-86
2023/04/20 09:57:08;;;;;;;12.60;3.40;;;;;;;16.44;61.44;101116.98;106001;1263;101998;-87
2023/04/20 09:59:56;;;;;;;12.50;3.90;;;;;;;16.41;61.43;101108.74;106058;1264;100643;-84
2023/04/20 10:02:47;;;;;;;12.10;2.90;;;;;;;16.43;60.93;101104.99;106002;1257;97997;-85
2023/04/20 10:05:35;;;;;;;14.80;3.20;;;;;;;16.59;61.17;101101.19;106372;1257;97961;-86
2023/04/20 10:08:23;;;;;;;7.00;2.70;;;;;;;16.73;59.84;101101.02;106219;1261;98478;-83
2023/04/20 10:11:08;;;;;;;17.30;3.40;;;;;;;16.78;59.25;101099.04;106604;1262;102121;-84
2023/04/20 10:13:55;;;;;;;16.60;3.30;;;;;;;16.85;58.50;101103.20;106168;1260;100833;-88
2023/04/20 10:16:42;;;;;;;10.90;3.60;;;;;;;17.00;58.71;101091.94;105904;1257;98058;-84
2023/04/20 10:19:39;;;;;;;9.90;3.10;;;;;;;17.18;57.83;101087.88;105937;1263;97970;-85
2023/04/20 10:22:31;;;;;;;8.90;3.30;;;;;;;17.34;57.48;101088.48;106196;1257;98048;-87
2023/04/20 10:25:22;;;;;;;13.30;3.10;;;;;;;17.49;58.68;101088.30;106059;1258;101290;-85
2023/04/20 10:28:09;;;;;;;11.10;2.80;;;;;;;17.63;58.00;101086.41;106020;1257;101640;-83
2023/04/20 10:30:55;;;;;;;8.50;2.50;;;;;;;17.75;56.63;101088.64;105946;1257;99005;-82
2023/04/20 10:33:53;;;;;;;7.30;3.10;;;;;;;17.77;55.20;101085.40;106067;1263;98082;-81
2023/04/20 11:04:29;;;;;;;6.90;3.10;;;;;;;18.77;53.80;101067.11;105420;1271;104062;-84
2023/04/20 11:07:15;;;;;;;12.90;3.00;;;;;;;18.90;53.74;101058.75;105463;1269;99883;-84
2023/04/20 11:10:03;;;;;;;11.70;2.80;;;;;;;18.95;51.37;101061.98;105307;1271;99121;-83
2023/04/20 11:12:48;;;;;;;5.50;3.30;;;;;;;18.88;51.76;101064.30;105330;1266;98407;-84
2023/04/20 11:15:35;;;;;;;8.50;2.90;;;;;;;18.86;52.23;101066.06;105392;1271;97952;-84
2023/04/20 11:18:20;;;;;;;4.40;2.80;;;;;;;18.98;52.02;101062.53;105509;1270;101347;-84
2023/04/20 11:21:06;;;;;;;18.30;3.70;;;;;;;19.08;51.19;101066.94;105471;1271;100013;-84
2023/04/20 11:23:51;;;;;;;9.00;2.50;;;;;;;19.03;50.64;101067.67;105521;1270;98415;-83
2023/04/20 11:26:39;;;;;;;6.00;2.40;;;;;;;18.90;50.02;101070.14;105553;1270;98004;-85
2023/04/20 11:29:35;;;;;;;20.40;3.30;;;;;;;18.78;50.09;101070.78;105429;1266;98473;-83
2023/04/20 11:32:20;;;;;;;7.80;2.80;;;;;;;18.66;50.20;101071.65;105319;1269;102658;-83
2023/04/20 11:35:09;;;;;;;6.50;3.00;;;;;;;18.69;50.62;101065.59;105398;1267;99162;-84
2023/04/20 11:37:56;;;;;;;7.70;2.90;;;;;;;18.86;49.91;101063.13;106571;1270;98392;-85
2023/04/20 11:40:42;;;;;;;8.80;2.60;;;;;;;19.05;49.68;101059.84;106469;1269;97962;-85
2023/04/20 11:43:28;;;;;;;5.50;2.60;;;;;;;19.18;48.92;101055.09;105345;1270;98511;-84
2023/04/20 11:46:19;;;;;;;10.30;2.80;;;;;;;19.26;48.33;101056.48;105262;1271;101348;-84
2023/04/20 11:49:04;;;;;;;7.90;2.40;;;;;;;19.37;48.01;101053.91;105278;1264;100341;-84
2023/04/20 11:51:50;;;;;;;5.20;2.40;;;;;;;19.38;47.23;101055.70;105431;1270;98739;-83
2023/04/20 11:54:35;;;;;;;4.40;2.40;;;;;;;19.23;44.66;101055.05;105619;1265;97913;-84
2023/04/20 11:57:22;;;;;;;10.60;3.10;;;;;;;19.09;43.59;101052.38;105532;1270;98026;-84
2023/04/20 12:00:51;;;;;;;7.50;2.70;;;;;;;19.00;44.41;101047.45;106055;1264;101346;31
2023/04/20 12:03:37;;;;;;;8.20;2.40;;;;;;;19.07;45.05;101044.44;105201;1271;99141;-85
2023/04/20 12:06:23;;;;;;;7.80;2.70;;;;;;;19.23;43.96;101045.98;105070;1272;99240;-84
2023/04/20 12:09:08;;;;;;;7.10;2.70;;;;;;;19.36;44.37;101041.27;105149;1273;97790;-84
2023/04/20 12:11:53;;;;;;;6.00;2.30;;;;;;;19.51;44.13;101037.27;104919;1270;97905;-84
2023/04/20 12:14:39;;;;;;;4.20;2.00;;;;;;;19.66;43.79;101041.30;105147;1276;101941;-84
2023/04/20 12:17:25;;;;;;;7.70;2.80;;;;;;;19.78;43.15;101036.46;105028;1270;99111;-84
2023/04/20 12:20:11;;;;;;;9.80;3.90;;;;;;;19.95;43.20;101036.27;105241;1270;97928;-84
2023/04/20 12:22:56;;;;;;;6.30;2.80;;;;;;;20.08;42.69;101030.03;105159;1271;98004;-84
2023/04/20 12:25:42;;;;;;;5.30;2.80;;;;;;;20.12;43.07;101027.20;105034;1272;99453;-83
2023/04/20 12:28:27;;;;;;;7.20;2.80;;;;;;;20.06;41.85;101030.20;104958;1274;101367;-84
2023/04/20 12:31:12;;;;;;;7.50;2.60;;;;;;;19.88;41.05;101029.90;104916;1276;100414;-83
2023/04/20 12:33:57;;;;;;;5.60;2.70;;;;;;;19.67;40.39;101034.30;105323;1270;99058;-83
2023/04/20 12:36:43;;;;;;;6.90;2.70;;;;;;;19.44;40.75;101035.52;104982;1274;98004;-83
2023/04/20 12:39:28;;;;;;;8.20;2.40;;;;;;;19.28;40.40;101032.09;105487;1270;98056;-84
2023/04/20 12:42:14;;;;;;;7.20;2.70;;;;;;;19.16;40.53;101028.64;105570;1274;101408;-83
2023/04/20 12:44:59;;;;;;;9.30;3.00;;;;;;;19.11;40.38;101024.61;105252;1274;99140;-83
2023/04/20 12:47:45;;;;;;;2.90;2.10;;;;;;;19.07;40.50;101026.78;105137;1273;97980;-84
2023/04/20 12:50:31;;;;;;;6.60;3.40;;;;;;;19.01;40.35;101027.11;105032;1270;97921;-84
2023/04/20 12:53:16;;;;;;;5.40;2.10;;;;;;;18.97;40.96;101024.12;105425;1274;98493;-83
2023/04/20 12:56:01;;;;;;;8.60;2.90;;;;;;;18.90;40.04;101026.31;104983;1274;101357;-84
2023/04/20 12:58:47;;;;;;;9.80;2.90;;;;;;;18.82;39.79;101023.39;105169;1273;100706;-83
2023/04/20 13:01:32;;;;;;;7.10;2.80;;;;;;;18.81;40.21;101015.75;105308;1273;98069;-83
2023/04/20 13:04:18;;;;;;;7.00;3.10;;;;;;;18.92;39.87;101017.10;104870;1268;97964;-84